createdAt,value
2018-07-17T01:57:33.408Z,4.50
2018-07-17T02:00:15.909Z,4.83
2018-07-17T02:11:15.954Z,5.20
2018-07-17T02:17:20.264Z,5.00
2018-07-17T02:19:56.144Z,5.07
2018-07-17T02:22:33.091Z,4.70
2018-07-17T02:25:05.615Z,4.67
2018-07-17T02:27:40.499Z,4.77
2018-07-17T02:30:17.624Z,5.43
2018-07-17T02:38:20.393Z,4.90
2018-07-17T02:41:12.291Z,4.63
2018-07-17T02:54:23.896Z,5.50
2018-07-17T02:57:14.222Z,5.10
2018-07-17T03:21:13.118Z,5.60
2018-07-17T03:25:37.724Z,5.33
2018-07-17T03:40:41.444Z,5.63
2018-07-17T03:43:21.135Z,5.63
2018-07-17T03:45:53.093Z,5.57
2018-07-17T03:48:24.749Z,5.70
2018-07-17T03:50:55.380Z,5.27
2018-07-17T03:53:24.862Z,5.30
2018-07-17T03:55:54.494Z,5.57
2018-07-17T03:58:24.011Z,5.37
2018-07-17T04:00:53.496Z,5.23
2018-07-17T04:03:22.900Z,5.83
2018-07-17T04:05:55.644Z,5.53
2018-07-17T04:08:25.289Z,5.70
2018-07-17T04:10:55.099Z,5.83
2018-07-17T04:13:24.821Z,6.07
2018-07-17T04:15:54.216Z,5.30
2018-07-17T04:18:23.679Z,6.07
2018-07-17T04:20:53.342Z,5.53
2018-07-17T04:23:22.926Z,5.60
2018-07-17T04:25:52.325Z,5.33
2018-07-17T04:28:21.821Z,5.57
2018-07-17T04:30:51.255Z,5.73
2018-07-17T04:33:20.906Z,5.60
2018-07-17T04:35:50.707Z,5.53
2018-07-17T04:38:20.727Z,5.83
2018-07-17T04:40:50.275Z,6.13
2018-07-17T04:43:20.494Z,5.80
2018-07-17T04:45:50.200Z,6.40
2018-07-17T04:48:19.596Z,6.73
2018-07-17T04:50:48.999Z,5.53
2018-07-17T04:53:18.511Z,6.10
2018-07-17T04:55:47.941Z,5.37
2018-07-17T04:58:17.462Z,5.63
2018-07-17T05:00:47.375Z,5.50
2018-07-17T05:03:16.853Z,5.97
2018-07-17T05:05:46.453Z,10.60
2018-07-17T05:08:15.861Z,6.60
2018-07-17T05:10:47.733Z,6.13
2018-07-17T05:13:17.181Z,5.63
2018-07-17T05:15:48.573Z,5.93
2018-07-17T05:18:18.490Z,5.60
2018-07-17T05:20:48.535Z,5.70
2018-07-17T05:23:18.282Z,5.87
2018-07-17T05:25:48.136Z,6.03
2018-07-17T05:28:19.328Z,5.80
2018-07-17T05:30:49.523Z,5.10
2018-07-17T05:33:19.593Z,6.17
2018-07-17T05:35:50.360Z,5.73
2018-07-17T05:38:20.819Z,5.53
2018-07-17T05:40:51.438Z,6.00
2018-07-17T05:43:21.425Z,5.47
2018-07-17T05:45:52.752Z,5.90
2018-07-17T05:48:24.275Z,5.27
2018-07-17T05:50:54.311Z,5.33
2018-07-17T05:53:30.453Z,4.90
2018-07-17T05:56:07.205Z,5.73
2018-07-17T05:58:39.147Z,5.63
2018-07-17T06:01:12.136Z,5.67
2018-07-17T06:03:42.673Z,5.67
2018-07-17T06:06:12.404Z,5.87
2018-07-17T06:08:42.461Z,5.53
2018-07-17T06:11:15.109Z,7.67
2018-07-17T06:13:45.252Z,5.97
2018-07-17T06:16:15.267Z,5.57
2018-07-17T06:18:45.144Z,5.53
2018-07-17T06:21:15.188Z,5.27
2018-07-17T06:23:44.776Z,5.83
2018-07-17T06:26:14.597Z,5.80
2018-07-17T06:28:45.882Z,5.60
2018-07-17T06:31:15.900Z,5.37
2018-07-17T06:33:45.541Z,5.30
2018-07-17T06:36:22.721Z,4.80
2018-07-17T06:38:58.078Z,4.77
2018-07-17T06:41:51.352Z,5.00
2018-07-17T06:44:21.956Z,5.37
2018-07-17T06:46:51.812Z,5.00
2018-07-17T06:49:21.496Z,5.13
2018-07-17T06:51:51.296Z,5.00
2018-07-17T06:54:21.289Z,5.40
2018-07-17T06:56:50.911Z,4.50
2018-07-17T06:59:20.549Z,4.53
2018-07-17T07:01:54.067Z,4.53
2018-07-17T07:04:23.975Z,4.93
2018-07-17T07:06:55.309Z,4.60
2018-07-17T07:09:26.630Z,4.37
2018-07-17T07:11:56.615Z,4.83
2018-07-17T07:14:26.574Z,3.93
2018-07-17T07:16:57.217Z,4.80
2018-07-17T07:19:28.610Z,6.27
2018-07-17T07:21:59.817Z,4.40
2018-07-17T07:24:30.834Z,4.53
2018-07-17T07:27:00.851Z,4.20
2018-07-17T07:29:30.802Z,4.00
2018-07-17T07:32:02.519Z,4.20
2018-07-17T07:34:32.266Z,5.57
2018-07-17T07:37:06.162Z,4.20
2018-07-17T07:39:37.505Z,5.33
2018-07-17T07:42:07.075Z,4.80
2018-07-17T07:44:36.810Z,4.83
2018-07-17T07:47:06.825Z,3.67
2018-07-17T07:49:36.399Z,4.10
2018-07-17T07:52:05.852Z,4.20
2018-07-17T07:54:36.184Z,4.63
2018-07-17T07:57:05.704Z,4.30
2018-07-17T07:59:35.345Z,4.43
2018-07-17T08:02:04.934Z,4.50
2018-07-17T08:04:34.387Z,4.63
2018-07-17T08:07:03.871Z,4.27
2018-07-17T08:09:34.641Z,3.83
2018-07-17T08:12:05.474Z,4.37
2018-07-17T08:14:35.474Z,4.17
2018-07-17T08:17:08.807Z,4.70
2018-07-17T08:19:38.465Z,4.00
2018-07-17T08:22:07.947Z,4.40
2018-07-17T08:24:37.860Z,4.23
2018-07-17T08:27:07.315Z,4.63
2018-07-17T08:29:36.966Z,4.30
2018-07-17T08:32:06.848Z,3.93
2018-07-17T08:34:37.270Z,4.00
2018-07-17T08:37:06.943Z,4.43
2018-07-17T08:39:36.820Z,4.17
2018-07-17T08:42:06.674Z,4.27
2018-07-17T08:44:36.577Z,3.90
2018-07-17T08:47:06.129Z,3.80
2018-07-17T08:49:35.924Z,4.90
2018-07-17T08:52:05.462Z,4.00
2018-07-17T08:54:35.180Z,3.30
2018-07-17T08:57:04.931Z,3.30
2018-07-17T08:59:34.314Z,3.73
2018-07-17T09:02:03.918Z,3.70
2018-07-17T09:04:34.295Z,3.80
2018-07-17T09:07:03.934Z,5.10
2018-07-17T09:09:33.702Z,4.23
2018-07-17T09:12:04.575Z,3.40
2018-07-17T09:17:33.536Z,3.50
2018-07-17T09:20:03.107Z,4.00
2018-07-17T09:22:32.859Z,3.40
2018-07-17T09:25:02.704Z,3.33
2018-07-17T09:27:32.366Z,3.40
2018-07-17T09:30:01.977Z,5.60
2018-07-17T09:32:31.790Z,6.13
2018-07-17T09:35:01.391Z,4.90
2018-07-17T09:37:36.127Z,3.50
2018-07-17T09:40:07.383Z,3.10
2018-07-17T09:42:38.540Z,3.23
2018-07-17T09:48:26.696Z,3.37
2018-07-17T09:50:59.338Z,3.37
2018-07-17T09:53:28.859Z,3.10
2018-07-17T09:55:58.387Z,3.00
2018-07-17T09:58:28.229Z,2.80
2018-07-17T10:01:03.852Z,3.17
2018-07-17T10:03:35.896Z,3.03
2018-07-17T10:06:05.492Z,3.27
2018-07-17T10:08:35.248Z,2.93
2018-07-17T10:11:06.369Z,3.40
2018-07-17T10:13:36.008Z,3.10
2018-07-17T10:16:05.710Z,3.30
2018-07-17T10:18:36.154Z,3.10
2018-07-17T10:21:05.826Z,3.00
2018-07-17T10:23:35.518Z,3.30
2018-07-17T10:26:07.200Z,2.77
2018-07-17T10:28:37.062Z,3.10
2018-07-17T10:31:06.712Z,3.30
2018-07-17T10:33:37.592Z,3.00
2018-07-17T10:36:07.259Z,2.50
2018-07-17T10:38:36.937Z,2.70
2018-07-17T10:41:06.630Z,2.50
2018-07-17T10:43:40.762Z,2.20
2018-07-17T10:46:10.199Z,2.10
2018-07-17T10:48:40.178Z,2.30
2018-07-17T10:51:09.991Z,2.13
2018-07-17T10:53:39.988Z,2.30
2018-07-17T10:56:09.499Z,2.10
2018-07-17T10:58:38.994Z,2.90
2018-07-17T11:01:09.905Z,2.00
2018-07-17T11:03:39.439Z,2.30
2018-07-17T11:06:09.073Z,2.20
2018-07-17T11:08:38.520Z,2.60
2018-07-17T11:11:09.027Z,2.30
2018-07-17T11:13:38.592Z,2.90
2018-07-17T11:16:08.050Z,2.70
2018-07-17T11:18:37.595Z,3.00
2018-07-17T11:21:07.648Z,2.90
2018-07-17T11:23:37.126Z,2.80
2018-07-17T11:26:06.547Z,2.97
2018-07-17T11:28:35.963Z,2.53
2018-07-17T11:31:05.621Z,2.50
2018-07-17T11:33:35.079Z,2.90
2018-07-17T11:36:05.090Z,2.50
2018-07-17T11:38:34.864Z,2.93
2018-07-17T11:41:04.405Z,3.07
2018-07-17T11:43:33.905Z,2.83
2018-07-17T11:46:03.403Z,2.90
2018-07-17T11:48:33.190Z,2.33
2018-07-17T11:51:02.631Z,2.50
2018-07-17T11:53:32.163Z,2.47
2018-07-17T11:56:01.657Z,2.37
2018-07-17T11:58:31.149Z,2.43
2018-07-17T12:01:04.852Z,2.33
2018-07-17T12:03:34.299Z,2.47
2018-07-17T12:06:03.799Z,3.03
2018-07-17T12:08:35.658Z,2.40
2018-07-17T12:11:05.176Z,2.50
2018-07-17T12:13:34.754Z,2.33
2018-07-17T12:16:04.215Z,3.00
2018-07-17T12:18:35.974Z,2.43
2018-07-17T12:21:05.493Z,2.67
2018-07-17T12:23:35.523Z,3.03
2018-07-17T12:26:05.197Z,2.70
2018-07-17T12:28:34.960Z,2.60
2018-07-17T12:31:04.647Z,2.30
2018-07-17T12:33:34.166Z,2.30
2018-07-17T12:36:05.333Z,2.30
2018-07-17T12:38:34.769Z,2.27
2018-07-17T12:41:04.714Z,2.20
2018-07-17T12:43:34.348Z,2.27
2018-07-17T12:46:04.157Z,2.70
2018-07-17T12:48:34.171Z,3.70
2018-07-17T12:51:11.266Z,2.43
2018-07-17T12:53:41.018Z,2.37
2018-07-17T12:56:11.879Z,2.30
2018-07-17T12:58:41.537Z,3.00
2018-07-17T13:01:11.092Z,2.37
2018-07-17T13:03:40.682Z,2.40
2018-07-17T13:06:10.484Z,2.80
2018-07-17T13:08:41.540Z,2.80
2018-07-17T13:11:12.733Z,2.80
2018-07-17T13:13:42.770Z,2.43
2018-07-17T13:16:12.400Z,2.53
2018-07-17T13:18:43.422Z,2.63
2018-07-17T13:21:12.956Z,3.00
2018-07-17T13:23:42.667Z,2.30
2018-07-17T13:26:12.100Z,2.40
2018-07-17T13:28:41.581Z,2.97
2018-07-17T13:31:11.207Z,2.60
2018-07-17T13:33:41.080Z,2.50
2018-07-17T13:36:10.638Z,2.10
2018-07-17T13:38:40.183Z,2.33
2018-07-17T13:41:09.633Z,2.60
2018-07-17T13:43:39.266Z,2.27
2018-07-17T13:46:08.802Z,2.00
2018-07-17T13:48:43.977Z,2.27
2018-07-17T13:51:13.503Z,2.07
2018-07-17T13:53:44.586Z,2.50
2018-07-17T13:56:14.227Z,2.77
2018-07-17T13:58:45.180Z,2.33
2018-07-17T14:01:15.017Z,2.40
2018-07-17T14:03:44.631Z,2.07
2018-07-17T14:06:14.160Z,2.10
2018-07-17T14:08:45.226Z,2.20
2018-07-17T14:11:14.723Z,2.23
2018-07-17T14:13:44.584Z,2.10
2018-07-17T14:16:14.025Z,2.20
2018-07-17T14:18:44.101Z,2.20
2018-07-17T14:21:13.551Z,1.80
2018-07-17T14:23:43.848Z,2.27
2018-07-17T14:26:13.437Z,2.03
2018-07-17T14:28:43.267Z,1.90
2018-07-17T14:31:12.775Z,1.80
2018-07-17T14:33:42.270Z,2.00
2018-07-17T14:36:12.027Z,1.97
2018-07-17T14:38:41.503Z,1.90
2018-07-17T14:41:10.967Z,2.10
2018-07-17T14:43:40.610Z,1.83
2018-07-17T14:46:10.696Z,2.23
2018-07-17T14:48:40.486Z,2.23
2018-07-17T14:51:12.489Z,2.33
2018-07-17T14:53:41.939Z,2.20
2018-07-17T14:56:11.634Z,2.20
2018-07-17T14:58:41.083Z,2.23
2018-07-17T15:01:10.594Z,1.80
2018-07-17T15:04:11.274Z,2.07
2018-07-17T15:06:40.824Z,2.77
2018-07-17T15:09:10.565Z,2.20
2018-07-17T15:11:40.484Z,2.17
2018-07-17T15:14:10.244Z,2.20
2018-07-17T15:16:39.746Z,2.30
2018-07-17T15:19:09.684Z,2.40
2018-07-17T15:21:40.246Z,2.03
2018-07-17T15:24:10.735Z,2.20
2018-07-17T15:26:41.651Z,2.30
2018-07-17T15:29:11.250Z,2.40
2018-07-17T15:31:40.848Z,2.07
2018-07-17T15:34:10.342Z,2.37
2018-07-17T15:36:40.546Z,2.00
2018-07-17T15:39:11.412Z,2.40
2018-07-17T15:41:41.283Z,2.23
2018-07-17T15:44:10.887Z,2.13
2018-07-17T15:46:40.391Z,2.70
2018-07-17T15:49:09.831Z,2.40
2018-07-17T15:51:41.813Z,2.90
2018-07-17T15:54:11.373Z,2.53
2018-07-17T15:56:40.883Z,2.60
2018-07-17T15:59:10.573Z,2.33
2018-07-17T16:01:43.934Z,2.57
2018-07-17T16:04:17.249Z,2.57
2018-07-17T16:06:47.057Z,2.30
2018-07-17T16:09:16.768Z,2.40
2018-07-17T16:11:46.625Z,2.20
2018-07-17T16:14:16.500Z,2.70
2018-07-17T16:19:40.656Z,2.40
2018-07-17T16:22:11.560Z,2.60
2018-07-17T16:24:42.303Z,2.77
2018-07-17T16:27:14.141Z,2.67
2018-07-17T16:29:48.052Z,2.43
2018-07-17T16:32:19.885Z,2.60
2018-07-17T16:34:50.769Z,2.60
2018-07-17T16:37:26.687Z,2.60
2018-07-17T16:39:57.442Z,2.67
2018-07-17T16:42:28.535Z,2.50
2018-07-17T16:44:59.120Z,2.60
2018-07-17T16:47:30.253Z,2.63
2018-07-17T16:50:01.687Z,2.43
2018-07-17T16:52:32.838Z,2.30
2018-07-17T16:55:04.494Z,2.43
2018-07-17T16:57:35.466Z,3.70
2018-07-17T17:00:06.282Z,2.40
2018-07-17T17:02:37.238Z,2.67
2018-07-17T17:05:07.918Z,2.70
2018-07-17T17:07:38.902Z,2.33
2018-07-17T17:10:10.500Z,2.67
2018-07-17T17:12:41.133Z,2.70
2018-07-17T17:15:11.743Z,2.53
2018-07-17T17:17:43.536Z,2.27
2018-07-17T17:20:53.323Z,3.13
2018-07-17T17:23:24.232Z,2.27
2018-07-17T17:25:54.877Z,2.60
2018-07-17T17:28:25.768Z,2.60
2018-07-17T17:30:56.314Z,2.60
2018-07-17T17:33:27.045Z,2.83
2018-07-17T17:35:59.278Z,2.80
2018-07-17T17:38:30.127Z,2.83
2018-07-17T17:41:00.809Z,2.90
2018-07-17T17:43:31.410Z,2.53
2018-07-17T17:46:02.124Z,2.80
2018-07-17T17:48:37.153Z,2.90
2018-07-17T17:51:07.917Z,2.63
2018-07-17T17:53:39.125Z,3.20
2018-07-17T17:56:09.798Z,2.93
2018-07-17T17:58:42.170Z,3.20
2018-07-17T18:01:13.502Z,2.97
2018-07-17T18:03:48.142Z,2.93
2018-07-17T18:06:18.746Z,2.83
2018-07-17T18:08:51.243Z,2.70
2018-07-17T18:11:23.627Z,3.10
2018-07-17T18:13:55.143Z,3.13
2018-07-17T18:16:26.766Z,3.10
2018-07-17T18:18:57.962Z,3.33
2018-07-17T18:21:28.658Z,3.00
2018-07-17T18:23:59.249Z,3.20
2018-07-17T18:26:32.435Z,3.53
2018-07-17T18:29:03.975Z,3.40
2018-07-17T18:31:35.658Z,3.33
2018-07-17T18:34:08.647Z,3.40
2018-07-17T18:36:39.884Z,3.33
2018-07-17T18:39:12.279Z,3.10
2018-07-17T18:41:43.270Z,3.20
2018-07-17T18:44:15.269Z,3.43
2018-07-17T18:46:52.525Z,2.93
2018-07-17T18:49:23.153Z,3.40
2018-07-17T18:51:54.144Z,3.40
2018-07-17T18:54:30.287Z,2.70
2018-07-17T18:57:01.058Z,2.93
2018-07-17T18:59:33.050Z,3.03
2018-07-17T19:02:03.896Z,3.47
2018-07-17T19:04:35.646Z,3.20
2018-07-17T19:07:07.284Z,2.93
2018-07-17T19:09:38.487Z,3.17
2018-07-17T19:12:10.460Z,2.90
2018-07-17T19:14:41.215Z,2.93
2018-07-17T19:17:12.426Z,3.17
2018-07-17T19:19:45.936Z,3.23
2018-07-17T19:22:17.878Z,2.90
2018-07-17T19:24:48.544Z,3.30
2018-07-17T19:27:19.294Z,3.37
2018-07-17T19:29:49.939Z,3.10
2018-07-17T19:32:20.771Z,3.20
2018-07-17T19:34:52.018Z,2.83
2018-07-17T19:37:22.656Z,3.30
2018-07-17T19:39:54.792Z,4.00
2018-07-17T19:42:26.563Z,2.73
2018-07-17T19:44:57.795Z,2.90
2018-07-17T19:47:28.427Z,2.90
2018-07-17T19:49:59.536Z,3.47
2018-07-17T19:52:31.063Z,3.10
2018-07-17T19:55:02.815Z,2.77
2018-07-17T19:57:33.644Z,3.30
2018-07-17T20:00:04.532Z,3.43
2018-07-17T20:02:35.335Z,2.87
2018-07-17T20:05:06.356Z,2.90
2018-07-17T20:07:38.019Z,2.80
2018-07-17T20:10:09.909Z,2.83
2018-07-17T20:12:40.721Z,2.90
2018-07-17T20:15:11.286Z,4.37
2018-07-17T20:17:42.286Z,2.60
2018-07-17T20:20:13.498Z,3.23
2018-07-17T20:22:44.411Z,2.80
2018-07-17T20:25:15.244Z,2.67
2018-07-17T20:27:45.949Z,3.20
2018-07-17T20:30:16.911Z,2.90
2018-07-17T20:32:47.656Z,2.87
2018-07-17T20:35:19.062Z,2.70
2018-07-17T20:37:51.064Z,2.87
2018-07-17T20:40:22.510Z,3.27
2018-07-17T20:42:56.613Z,3.30
2018-07-17T20:45:27.203Z,3.37
2018-07-17T20:47:59.454Z,2.87
2018-07-17T20:50:30.353Z,3.00
2018-07-17T20:53:01.850Z,2.90
2018-07-17T20:55:32.429Z,3.00
2018-07-17T20:58:03.024Z,2.90
2018-07-17T21:00:34.080Z,2.97
2018-07-17T21:03:04.853Z,3.23
2018-07-17T21:05:35.408Z,4.07
2018-07-17T21:08:06.044Z,3.20
2018-07-17T21:10:37.350Z,2.50
2018-07-17T21:13:07.993Z,3.00
2018-07-17T21:15:38.529Z,3.20
2018-07-17T21:18:09.121Z,2.77
2018-07-17T21:20:40.324Z,3.33
2018-07-17T21:23:11.208Z,3.20
2018-07-17T21:25:42.228Z,3.00
2018-07-17T22:14:08.567Z,3.17
2018-07-17T22:16:46.209Z,3.13
2018-07-17T22:19:18.812Z,3.00
2018-07-17T22:50:43.595Z,3.43
2018-07-17T22:53:13.715Z,3.20
2018-07-17T22:55:43.789Z,3.17
2018-07-17T22:58:13.918Z,2.93
2018-07-17T23:00:44.360Z,3.27
2018-07-17T23:03:14.899Z,3.40
2018-07-17T23:05:45.014Z,3.20
2018-07-17T23:08:15.157Z,3.30
2018-07-17T23:10:46.862Z,3.50
2018-07-17T23:13:17.539Z,3.43
2018-07-17T23:15:47.738Z,3.37
2018-07-17T23:18:18.710Z,3.27
2018-07-17T23:20:48.782Z,3.50
2018-07-17T23:23:19.157Z,2.83
2018-07-17T23:25:49.147Z,3.30
2018-07-17T23:28:19.336Z,3.37
2018-07-17T23:30:49.409Z,3.57
2018-07-17T23:33:21.128Z,3.30
2018-07-17T23:35:51.853Z,3.20
2018-07-17T23:38:22.022Z,3.33
2018-07-17T23:40:52.199Z,3.60
2018-07-17T23:43:22.576Z,3.40
2018-07-17T23:45:53.397Z,3.30
2018-07-17T23:48:23.546Z,3.13
2018-07-17T23:50:54.837Z,3.30
2018-07-17T23:53:25.012Z,2.87
2018-07-17T23:55:55.283Z,3.33
2018-07-17T23:58:26.848Z,3.20
